Time;durP1;ratioP1;P1;durP2;ratioP2;P2;SDS_P1;SDS_P2;PMS_P1;PMS_P2;Temp;Humidity;BMP_temperature;BMP_pressure;BME280_temperature;BME280_humidity;BME280_pressure;Samples;Min_cycle;Max_cycle;Signal;HPM_P1;HPM_P2
2023/05/31 00:00:54;;;;;;;0.30;0.30;;;12.60;99.90;;;;;;5029645;28;20098;-83
2023/05/31 00:03:21;;;;;;;1.40;0.73;;;12.50;99.90;;;;;;5024803;28;20099;-85
2023/05/31 00:05:48;;;;;;;0.85;0.20;;;12.50;99.90;;;;;;5041270;28;20144;-84
2023/05/31 00:08:15;;;;;;;0.20;0.20;;;12.50;99.90;;;;;;5044490;28;20049;-85
2023/05/31 00:10:42;;;;;;;0.73;0.30;;;12.50;99.90;;;;;;5062769;28;20064;-84
2023/05/31 00:13:10;;;;;;;0.30;0.30;;;12.50;99.90;;;;;;5037060;28;20818;-84
2023/05/31 00:15:36;;;;;;;0.20;0.20;;;12.40;99.90;;;;;;5063385;28;20045;-84
2023/05/31 00:18:03;;;;;;;0.35;0.15;;;12.40;99.90;;;;;;5061483;28;20515;-85
2023/05/31 00:20:30;;;;;;;0.10;0.10;;;12.30;99.90;;;;;;5061953;28;20079;-84
2023/05/31 00:22:57;;;;;;;0.63;0.30;;;12.30;99.90;;;;;;5045184;28;20296;-85
2023/05/31 00:25:24;;;;;;;0.63;0.30;;;12.20;99.90;;;;;;5026187;28;20435;-85
2023/05/31 00:27:51;;;;;;;0.40;0.20;;;12.20;99.90;;;;;;5041259;28;20049;-85
2023/05/31 00:30:18;;;;;;;0.50;0.30;;;12.20;99.90;;;;;;5041700;28;20062;-84
2023/05/31 00:32:45;;;;;;;0.25;0.20;;;12.20;99.90;;;;;;5012865;28;20103;-84
2023/05/31 00:35:12;;;;;;;0.60;0.40;;;12.20;99.90;;;;;;5023740;28;20139;-84
2023/05/31 00:37:40;;;;;;;0.40;0.40;;;12.10;99.90;;;;;;5024954;28;20055;-84
2023/05/31 00:40:09;;;;;;;0.30;0.20;;;12.10;99.90;;;;;;5041329;28;20084;-85
2023/05/31 00:42:37;;;;;;;0.82;0.30;;;12.10;99.90;;;;;;5048612;28;20881;-84
2023/05/31 00:45:08;;;;;;;0.55;0.35;;;12.10;99.90;;;;;;5054737;28;20129;-84
2023/05/31 00:47:35;;;;;;;2.22;0.55;;;12.10;99.90;;;;;;5044976;28;20496;-83
2023/05/31 00:50:02;;;;;;;1.00;0.50;;;12.10;99.90;;;;;;5027181;28;20106;-84
2023/05/31 00:52:29;;;;;;;0.50;0.40;;;12.00;99.90;;;;;;5025926;28;20572;-84
2023/05/31 00:54:56;;;;;;;0.88;0.47;;;12.00;99.90;;;;;;5057461;28;20155;-85
2023/05/31 00:57:24;;;;;;;0.63;0.43;;;11.90;99.90;;;;;;5024147;28;20072;-84
2023/05/31 00:59:51;;;;;;;0.93;0.65;;;12.00;99.90;;;;;;5008191;28;20147;-84
2023/05/31 01:02:18;;;;;;;1.48;0.60;;;11.90;99.90;;;;;;5026941;28;20079;-84
2023/05/31 01:04:45;;;;;;;0.68;0.40;;;11.90;99.90;;;;;;5032196;28;20048;-84
2023/05/31 01:07:12;;;;;;;1.05;0.65;;;11.90;99.90;;;;;;5008470;28;20064;-84
2023/05/31 01:09:42;;;;;;;0.77;0.50;;;11.90;99.90;;;;;;5023721;28;20521;-84
2023/05/31 01:12:32;;;;;;;0.88;0.47;;;11.90;99.90;;;;;;5025784;28;20106;-84
2023/05/31 01:15:07;;;;;;;1.67;0.60;;;11.80;99.90;;;;;;5024237;28;20387;-84
2023/05/31 01:17:48;;;;;;;0.40;0.40;;;11.80;99.90;;;;;;5041845;28;20099;-84
2023/05/31 01:20:17;;;;;;;0.75;0.55;;;11.80;99.90;;;;;;5041515;28;20040;-84
2023/05/31 01:23:03;;;;;;;1.20;0.80;;;11.80;99.90;;;;;;5040763;28;20106;-84
2023/05/31 01:26:17;;;;;;;1.42;0.60;;;11.70;99.90;;;;;;5052939;28;20112;-84
2023/05/31 01:28:50;;;;;;;;;;;11.60;99.90;;;;;;5027268;28;20115;-84
2023/05/31 01:31:19;;;;;;;0.82;0.60;;;11.50;99.90;;;;;;5029400;28;20027;-83
2023/05/31 01:33:46;;;;;;;0.82;0.50;;;11.50;99.90;;;;;;5039035;28;20106;-84
2023/05/31 01:36:14;;;;;;;0.40;0.40;;;11.50;99.90;;;;;;5030772;28;20458;-84
2023/05/31 01:38:41;;;;;;;0.70;0.60;;;11.60;99.90;;;;;;5046606;28;20048;-84
2023/05/31 01:41:08;;;;;;;0.77;0.30;;;11.60;99.90;;;;;;5063835;28;20078;-84
2023/05/31 01:43:40;;;;;;;0.70;0.40;;;11.60;99.90;;;;;;5062838;28;20113;-84
2023/05/31 01:46:07;;;;;;;0.65;0.50;;;11.60;99.90;;;;;;5048238;28;20048;-84
2023/05/31 01:48:34;;;;;;;0.30;0.30;;;11.60;99.90;;;;;;5063977;28;20436;-83
2023/05/31 01:51:01;;;;;;;0.88;0.50;;;11.60;99.90;;;;;;5051575;28;20383;-84
2023/05/31 01:53:29;;;;;;;0.20;0.20;;;11.50;99.90;;;;;;5052426;28;20690;-84
2023/05/31 01:55:56;;;;;;;1.23;0.60;;;11.50;99.90;;;;;;5052618;28;20106;-84
2023/05/31 01:58:23;;;;;;;0.50;0.40;;;11.40;99.90;;;;;;5052423;28;20110;-84
2023/05/31 02:00:50;;;;;;;0.43;0.43;;;11.40;99.90;;;;;;5036216;28;20048;-85
2023/05/31 02:03:17;;;;;;;0.38;0.30;;;11.40;99.90;;;;;;5026277;28;20084;-84
2023/05/31 02:06:02;;;;;;;0.70;0.40;;;11.50;99.90;;;;;;5032248;28;20079;-84
2023/05/31 02:08:29;;;;;;;1.30;0.40;;;11.50;99.90;;;;;;5048892;28;20044;-85
2023/05/31 02:10:56;;;;;;;1.40;0.50;;;11.40;99.90;;;;;;5049491;28;20049;-84
2023/05/31 02:13:30;;;;;;;0.57;0.40;;;11.50;99.90;;;;;;5059090;28;20123;-84
2023/05/31 02:15:57;;;;;;;;;;;11.40;99.90;;;;;;5053916;28;20361;-84
2023/05/31 02:18:26;;;;;;;1.33;0.85;;;11.50;99.90;;;;;;5067054;28;20390;-84
2023/05/31 02:20:54;;;;;;;0.75;0.50;;;11.50;99.90;;;;;;5052584;28;20049;-84
2023/05/31 02:23:21;;;;;;;0.98;0.60;;;11.50;99.90;;;;;;5032019;28;20049;-84
2023/05/31 02:25:48;;;;;;;0.93;0.47;;;11.50;99.90;;;;;;5048696;28;20057;-84
2023/05/31 02:28:16;;;;;;;1.25;0.47;;;11.40;99.90;;;;;;5015566;28;20591;-83
2023/05/31 02:30:59;;;;;;;0.32;0.25;;;11.40;99.90;;;;;;5048668;28;20060;-84
2023/05/31 02:33:27;;;;;;;0.40;0.35;;;11.50;99.90;;;;;;5037240;28;20133;-83
2023/05/31 02:35:56;;;;;;;0.75;0.47;;;11.50;99.90;;;;;;5048433;28;20087;-84
2023/05/31 02:38:24;;;;;;;1.17;0.50;;;11.40;99.90;;;;;;5048410;28;20052;-84
2023/05/31 02:40:51;;;;;;;0.47;0.30;;;11.50;99.90;;;;;;5065065;28;20049;-84
2023/05/31 02:43:17;;;;;;;0.65;0.40;;;11.50;99.90;;;;;;5043374;28;20096;-84
2023/05/31 02:45:45;;;;;;;0.73;0.22;;;11.50;99.90;;;;;;5031371;28;20071;-84
2023/05/31 02:48:11;;;;;;;0.40;0.28;;;11.60;99.90;;;;;;5046014;28;20088;-85
2023/05/31 02:50:40;;;;;;;0.22;0.20;;;11.50;99.90;;;;;;5032027;28;20057;-85
2023/05/31 02:53:07;;;;;;;0.52;0.30;;;11.60;99.90;;;;;;5048090;28;20053;-84
2023/05/31 02:55:34;;;;;;;0.73;0.60;;;11.60;99.90;;;;;;5015569;28;20053;-84
2023/05/31 02:58:01;;;;;;;0.57;0.50;;;11.60;99.90;;;;;;5015241;28;20056;-84
2023/05/31 03:00:28;;;;;;;0.40;0.40;;;11.50;99.90;;;;;;5032295;28;20061;-84
2023/05/31 03:02:55;;;;;;;1.58;0.75;;;11.50;99.90;;;;;;5034667;28;20048;-84
2023/05/31 03:05:23;;;;;;;0.80;0.50;;;11.50;99.90;;;;;;5068136;28;20049;-85
2023/05/31 03:07:50;;;;;;;1.40;0.55;;;11.50;99.90;;;;;;5051747;28;20052;-84
2023/05/31 03:10:17;;;;;;;0.50;0.50;;;11.50;99.90;;;;;;5051457;28;20052;-84
2023/05/31 03:12:44;;;;;;;0.60;0.40;;;11.50;99.90;;;;;;5051257;28;20063;-85
2023/05/31 03:15:11;;;;;;;0.60;0.30;;;11.40;99.90;;;;;;5068286;28;20052;-85
2023/05/31 03:17:39;;;;;;;0.50;0.40;;;11.50;99.90;;;;;;5034757;28;20523;-84
2023/05/31 03:20:09;;;;;;;1.33;0.88;;;11.50;99.90;;;;;;5066330;28;20052;-86
2023/05/31 03:22:36;;;;;;;0.30;0.30;;;11.50;99.90;;;;;;5052051;28;20076;-85
2023/05/31 03:25:04;;;;;;;1.38;0.50;;;11.50;99.90;;;;;;5034416;28;20076;-85
2023/05/31 03:27:31;;;;;;;0.80;0.40;;;11.50;99.90;;;;;;5051338;28;20098;-85
2023/05/31 03:29:58;;;;;;;0.68;0.50;;;11.50;99.90;;;;;;5050925;28;20564;-85
2023/05/31 03:32:25;;;;;;;1.33;0.50;;;11.50;99.90;;;;;;5051050;28;20503;-85
2023/05/31 03:34:52;;;;;;;0.63;0.38;;;11.50;99.90;;;;;;5032983;28;20056;-84
2023/05/31 03:37:19;;;;;;;1.38;0.47;;;11.50;99.90;;;;;;5034474;28;20047;-84
2023/05/31 03:39:46;;;;;;;0.50;0.50;;;11.50;99.90;;;;;;5034343;28;20056;-84
2023/05/31 03:42:13;;;;;;;0.63;0.30;;;11.50;99.90;;;;;;5050878;28;20056;-83
2023/05/31 03:44:40;;;;;;;0.50;0.30;;;11.40;99.90;;;;;;5031219;28;20060;-85
2023/05/31 03:47:07;;;;;;;0.40;0.30;;;11.40;99.90;;;;;;5014997;28;20141;-84
2023/05/31 03:49:34;;;;;;;0.35;0.30;;;11.40;99.90;;;;;;5046673;28;20127;-84
2023/05/31 03:52:01;;;;;;;0.47;0.30;;;11.30;99.90;;;;;;5047214;28;20151;-85
2023/05/31 03:54:29;;;;;;;0.55;0.40;;;11.40;99.90;;;;;;5047752;28;20079;-84
2023/05/31 03:56:56;;;;;;;0.60;0.38;;;11.40;99.90;;;;;;5050960;28;20044;-84
2023/05/31 03:59:23;;;;;;;0.38;0.38;;;11.30;99.90;;;;;;5067136;28;20049;-85
2023/05/31 04:01:50;;;;;;;0.20;0.20;;;11.30;99.90;;;;;;5034515;28;20052;-84
2023/05/31 04:04:17;;;;;;;0.40;0.40;;;11.30;99.90;;;;;;5032573;28;20483;-83
2023/05/31 04:06:45;;;;;;;0.50;0.30;;;11.20;99.90;;;;;;5050522;28;20136;-84
2023/05/31 04:09:12;;;;;;;0.20;0.20;;;11.20;99.90;;;;;;5066485;28;20166;-83
2023/05/31 04:11:39;;;;;;;0.22;0.20;;;11.30;99.90;;;;;;5049994;28;20498;-83
2023/05/31 04:14:06;;;;;;;0.47;0.38;;;11.30;99.90;;;;;;5045798;28;20053;-84
2023/05/31 04:16:33;;;;;;;0.30;0.30;;;11.40;99.90;;;;;;5031364;28;20400;-84
2023/05/31 04:19:00;;;;;;;0.20;0.20;;;11.40;99.90;;;;;;5035638;28;20045;-84
2023/05/31 04:21:27;;;;;;;0.32;0.32;;;11.40;99.90;;;;;;5054668;28;20065;-84
2023/05/31 04:23:54;;;;;;;0.30;0.30;;;11.40;99.90;;;;;;5029362;28;20041;-84
2023/05/31 04:26:22;;;;;;;0.52;0.45;;;11.40;99.90;;;;;;5049920;28;20072;-83
2023/05/31 04:28:53;;;;;;;0.38;0.30;;;11.40;99.90;;;;;;5066155;28;20052;-83
2023/05/31 04:31:20;;;;;;;0.47;0.40;;;11.40;99.90;;;;;;5067452;28;20117;-84
2023/05/31 04:33:48;;;;;;;0.52;0.28;;;11.40;99.90;;;;;;5039781;28;20417;-84
2023/05/31 04:36:14;;;;;;;0.30;0.30;;;11.40;99.90;;;;;;5030703;28;20099;-84
2023/05/31 04:38:41;;;;;;;0.77;0.40;;;11.50;99.90;;;;;;5030546;28;20419;-84
2023/05/31 04:41:09;;;;;;;0.88;0.55;;;11.40;99.90;;;;;;5032246;28;20128;-84
2023/05/31 04:43:39;;;;;;;0.85;0.50;;;11.50;99.90;;;;;;5031145;28;20094;-85
2023/05/31 04:46:09;;;;;;;1.02;0.80;;;11.50;99.90;;;;;;5047307;28;20049;-84
2023/05/31 04:48:36;;;;;;;1.52;1.00;;;11.40;99.90;;;;;;5034897;28;20136;-85
2023/05/31 04:51:04;;;;;;;1.40;1.00;;;11.40;99.90;;;;;;5036533;28;20069;-82
2023/05/31 04:53:32;;;;;;;1.40;0.80;;;11.30;99.90;;;;;;5019679;28;20052;-84
2023/05/31 04:56:04;;;;;;;0.98;0.80;;;11.30;99.90;;;;;;5034881;28;20113;-84
2023/05/31 04:58:31;;;;;;;1.15;0.82;;;11.40;99.90;;;;;;5034202;28;20212;-86
2023/05/31 05:00:59;;;;;;;1.10;0.68;;;11.40;99.90;;;;;;5059380;28;20056;-84
2023/05/31 05:03:28;;;;;;;0.95;0.45;;;11.40;99.90;;;;;;5038436;28;20191;-86
2023/05/31 05:05:56;;;;;;;0.60;0.40;;;11.40;99.90;;;;;;5022198;28;20569;-87
2023/05/31 05:08:23;;;;;;;0.32;0.32;;;11.50;99.90;;;;;;5042000;28;20089;-86
2023/05/31 05:10:50;;;;;;;0.60;0.43;;;11.50;99.90;;;;;;5024966;28;20076;-86
2023/05/31 05:13:18;;;;;;;0.82;0.47;;;11.50;99.90;;;;;;5020089;28;20052;-83
2023/05/31 05:15:45;;;;;;;0.63;0.40;;;11.50;99.90;;;;;;5025240;28;20148;-85
2023/05/31 05:18:12;;;;;;;0.43;0.30;;;11.50;99.90;;;;;;5037327;28;20075;-87
2023/05/31 05:20:39;;;;;;;1.15;0.90;;;11.50;99.90;;;;;;5032500;28;20089;-85
2023/05/31 05:23:07;;;;;;;0.70;0.50;;;11.50;99.90;;;;;;5031157;28;20648;-84
2023/05/31 05:25:35;;;;;;;1.00;0.70;;;11.60;99.90;;;;;;5044960;28;20495;-86
2023/05/31 05:28:02;;;;;;;1.27;1.00;;;11.70;99.90;;;;;;5031840;28;20053;-86
2023/05/31 05:30:29;;;;;;;1.20;0.90;;;11.70;99.90;;;;;;5039196;28;20680;-86
2023/05/31 05:32:57;;;;;;;1.02;0.70;;;11.70;99.90;;;;;;5037466;28;20426;-85
2023/05/31 05:35:24;;;;;;;1.33;0.70;;;11.70;99.90;;;;;;5022227;28;20045;-85
2023/05/31 05:37:52;;;;;;;1.00;0.50;;;11.80;99.90;;;;;;5006687;28;20175;-85
2023/05/31 05:40:19;;;;;;;1.27;0.80;;;11.90;99.90;;;;;;5041016;28;20064;-86
2023/05/31 05:42:48;;;;;;;1.65;0.90;;;11.80;99.90;;;;;;5028564;28;20052;-86
2023/05/31 05:45:15;;;;;;;1.30;0.60;;;11.90;99.90;;;;;;5024031;28;20452;-87
2023/05/31 05:47:44;;;;;;;0.85;0.70;;;11.90;99.90;;;;;;5023776;28;20064;-87
2023/05/31 05:50:12;;;;;;;0.68;0.68;;;11.90;99.90;;;;;;5042371;28;20126;-86
2023/05/31 05:52:39;;;;;;;0.65;0.60;;;11.90;99.90;;;;;;5057071;28;20049;-87
2023/05/31 05:55:08;;;;;;;1.70;1.00;;;12.00;99.90;;;;;;5042627;28;20048;-87
2023/05/31 05:57:35;;;;;;;0.85;0.70;;;12.00;99.90;;;;;;5038869;28;20052;-86
2023/05/31 06:00:10;;;;;;;1.20;0.80;;;12.10;99.90;;;;;;5035141;28;20049;-85
2023/05/31 06:02:38;;;;;;;1.38;1.00;;;12.10;99.90;;;;;;5032008;28;20045;-86
2023/05/31 06:05:05;;;;;;;1.35;1.10;;;12.10;99.90;;;;;;5013934;28;20083;-87
2023/05/31 06:07:32;;;;;;;1.05;0.50;;;12.10;99.90;;;;;;5011353;28;20045;-86
2023/05/31 06:10:00;;;;;;;1.02;0.77;;;12.20;99.90;;;;;;5039692;28;20096;-85
2023/05/31 06:12:27;;;;;;;0.60;0.60;;;12.20;99.90;;;;;;5031322;28;20071;-87
2023/05/31 06:14:54;;;;;;;0.68;0.52;;;12.30;99.90;;;;;;5033676;28;20090;-86
2023/05/31 06:17:21;;;;;;;0.75;0.50;;;12.40;99.90;;;;;;5060022;28;20147;-87
2023/05/31 06:19:49;;;;;;;1.00;0.70;;;12.40;99.90;;;;;;5020424;28;20417;-86
2023/05/31 06:22:19;;;;;;;0.60;0.60;;;12.40;99.90;;;;;;5049533;28;20074;-87
2023/05/31 06:24:46;;;;;;;1.73;0.70;;;12.30;99.90;;;;;;5022767;28;20151;-86
2023/05/31 06:27:14;;;;;;;0.70;0.70;;;12.40;99.90;;;;;;5015953;28;20045;-87
2023/05/31 06:29:42;;;;;;;0.95;0.70;;;12.50;99.90;;;;;;5042932;28;20057;-85
2023/05/31 06:32:10;;;;;;;1.08;0.68;;;12.60;99.90;;;;;;5042417;28;20128;-85
2023/05/31 06:34:36;;;;;;;0.60;0.52;;;12.70;99.90;;;;;;5023630;28;20061;-85
2023/05/31 06:37:04;;;;;;;1.20;0.73;;;12.90;99.90;;;;;;5041151;28;20060;-84
2023/05/31 06:39:31;;;;;;;1.48;1.00;;;12.90;99.90;;;;;;5040740;28;20125;-85
2023/05/31 06:41:59;;;;;;;0.73;0.50;;;12.90;99.90;;;;;;5021657;28;20051;-84
2023/05/31 06:44:26;;;;;;;1.00;0.70;;;13.00;99.90;;;;;;5042545;28;20137;-85
2023/05/31 06:46:54;;;;;;;2.22;1.30;;;13.10;99.90;;;;;;5025760;28;20156;-83
2023/05/31 06:49:21;;;;;;;1.17;0.95;;;13.10;99.90;;;;;;5029187;28;20080;-84
2023/05/31 06:51:48;;;;;;;3.03;1.00;;;13.10;99.90;;;;;;5043653;28;20095;-83
2023/05/31 06:54:15;;;;;;;1.73;1.17;;;13.20;99.90;;;;;;5027578;28;20495;-85
2023/05/31 06:56:42;;;;;;;1.63;1.10;;;13.20;99.90;;;;;;5043279;28;20064;-83
2023/05/31 06:59:10;;;;;;;1.17;0.85;;;13.30;99.90;;;;;;5043409;28;20075;-85
2023/05/31 07:01:37;;;;;;;1.95;1.00;;;13.40;99.90;;;;;;5033001;28;20049;-85
2023/05/31 07:04:04;;;;;;;1.83;1.05;;;13.50;99.90;;;;;;5049287;28;20045;-85
2023/05/31 07:06:31;;;;;;;1.33;1.10;;;13.50;99.90;;;;;;5033521;28;20396;-85
2023/05/31 07:08:58;;;;;;;0.93;0.70;;;13.40;99.90;;;;;;5037000;28;20056;-78
2023/05/31 07:11:25;;;;;;;0.90;0.80;;;13.60;99.90;;;;;;5045548;28;20052;-80
2023/05/31 07:13:54;;;;;;;1.42;0.85;;;13.70;99.90;;;;;;5041207;28;20634;-80
2023/05/31 07:16:21;;;;;;;2.03;1.02;;;13.70;99.90;;;;;;5011259;28;20210;-80
2023/05/31 07:18:48;;;;;;;0.88;0.82;;;13.80;99.90;;;;;;5022339;28;20055;-80
2023/05/31 07:21:15;;;;;;;0.75;0.75;;;14.00;99.90;;;;;;5049289;28;20052;-79
2023/05/31 07:23:42;;;;;;;2.35;1.40;;;14.10;99.90;;;;;;5052738;28;20622;-80
2023/05/31 07:26:11;;;;;;;2.35;1.70;;;14.10;99.90;;;;;;5030504;28;20057;-81
2023/05/31 07:28:38;;;;;;;1.35;1.13;;;14.10;99.90;;;;;;5051488;28;20053;-82
2023/05/31 07:31:05;;;;;;;3.40;1.50;;;14.20;99.90;;;;;;5035304;28;20107;-80
2023/05/31 07:33:32;;;;;;;3.10;1.45;;;14.20;99.90;;;;;;5035435;28;20447;-79
2023/05/31 07:36:02;;;;;;;2.35;1.60;;;14.20;99.90;;;;;;5036300;28;20064;-79
2023/05/31 07:38:30;;;;;;;2.05;1.30;;;14.30;99.90;;;;;;5037416;28;20124;-79
2023/05/31 07:40:56;;;;;;;2.47;1.27;;;14.40;99.90;;;;;;5024647;28;20083;-79
2023/05/31 07:43:24;;;;;;;1.30;1.00;;;14.50;99.90;;;;;;5036277;28;20071;-81
2023/05/31 07:45:51;;;;;;;1.67;1.17;;;14.70;99.90;;;;;;5037321;28;20049;-79
2023/05/31 07:48:18;;;;;;;1.60;1.13;;;14.90;99.90;;;;;;5034674;28;20049;-80
2023/05/31 07:50:46;;;;;;;1.92;1.13;;;14.90;99.90;;;;;;5036915;28;20128;-79
2023/05/31 07:53:13;;;;;;;1.20;1.00;;;14.80;99.90;;;;;;5020257;28;20132;-79
2023/05/31 07:55:40;;;;;;;2.03;1.50;;;14.90;99.90;;;;;;5004649;28;20131;-80
2023/05/31 07:58:07;;;;;;;3.05;1.65;;;14.90;99.90;;;;;;5003655;28;20057;-81
2023/05/31 08:00:35;;;;;;;1.83;1.40;;;14.70;99.90;;;;;;5054329;28;20539;-79
2023/05/31 08:03:02;;;;;;;1.63;1.08;;;14.70;99.90;;;;;;5037775;28;20060;-81
2023/05/31 08:05:45;;;;;;;3.00;1.58;;;14.80;99.90;;;;;;5094503;27;20518;-79
2023/05/31 08:08:13;;;;;;;2.17;1.48;;;14.80;99.90;;;;;;5076621;28;20139;-80
2023/05/31 08:10:40;;;;;;;2.30;2.03;;;14.80;99.90;;;;;;5076486;28;20051;-80
2023/05/31 08:13:07;;;;;;;2.45;1.55;;;14.80;99.90;;;;;;5092035;28;20583;-79
2023/05/31 08:15:35;;;;;;;1.70;1.42;;;14.70;99.90;;;;;;5093596;28;20512;-78
2023/05/31 08:18:02;;;;;;;2.78;1.70;;;14.80;99.90;;;;;;5091744;28;20605;-78
2023/05/31 08:20:29;;;;;;;2.42;1.70;;;14.80;99.90;;;;;;5075668;28;20122;-78
2023/05/31 08:22:58;;;;;;;2.63;1.65;;;14.90;99.90;;;;;;5092818;28;20056;-81
2023/05/31 08:25:25;;;;;;;3.58;2.13;;;14.90;99.90;;;;;;5092996;28;20569;-81
2023/05/31 08:27:52;;;;;;;3.15;1.90;;;14.90;99.90;;;;;;5076247;28;20044;-79
2023/05/31 08:30:19;;;;;;;3.20;2.05;;;15.00;99.90;;;;;;5093093;28;20052;-79
2023/05/31 08:32:46;;;;;;;5.32;2.00;;;15.10;99.90;;;;;;5075677;28;20163;-78
2023/05/31 08:35:13;;;;;;;2.50;1.90;;;15.00;99.90;;;;;;5088020;28;20136;-79
2023/05/31 08:37:40;;;;;;;1.85;1.13;;;15.10;99.90;;;;;;5073433;28;20635;-79
2023/05/31 08:40:07;;;;;;;3.70;2.10;;;15.20;99.90;;;;;;5092394;28;20059;-79
2023/05/31 08:42:40;;;;;;;2.25;1.75;;;15.20;99.90;;;;;;5075621;28;20047;-79
2023/05/31 08:45:09;;;;;;;2.88;2.00;;;15.20;99.90;;;;;;5074474;28;20178;-78
2023/05/31 08:47:43;;;;;;;3.00;2.45;;;15.20;99.90;;;;;;5065068;28;20834;-80
2023/05/31 08:50:11;;;;;;;3.53;2.22;;;15.20;99.90;;;;;;5083071;28;20060;-80
2023/05/31 08:52:38;;;;;;;3.92;1.88;;;15.40;99.90;;;;;;5085771;28;20410;-80
2023/05/31 08:55:07;;;;;;;4.68;2.50;;;15.50;99.90;;;;;;5083568;28;20512;-82
2023/05/31 08:57:35;;;;;;;3.22;2.58;;;15.50;99.90;;;;;;5085993;28;20048;-81
2023/05/31 09:00:08;;;;;;;3.20;2.75;;;15.60;99.90;;;;;;5071901;28;20048;-83
2023/05/31 09:02:35;;;;;;;;;;;15.70;99.90;;;;;;5052592;28;20097;-80
2023/05/31 09:05:03;;;;;;;4.35;3.05;;;15.70;99.90;;;;;;5084486;28;20003;-81
2023/05/31 09:07:30;;;;;;;3.97;3.00;;;15.80;99.90;;;;;;5075339;28;20112;-81
2023/05/31 09:09:57;;;;;;;4.15;2.75;;;15.80;99.90;;;;;;5092335;28;20051;-81
2023/05/31 09:12:24;;;;;;;2.70;2.33;;;15.80;99.90;;;;;;5075480;28;20055;-81
2023/05/31 09:14:51;;;;;;;3.15;2.58;;;15.80;99.90;;;;;;5073446;28;20655;-82
2023/05/31 09:17:18;;;;;;;3.08;1.98;;;15.80;99.90;;;;;;5070633;28;20483;-81
2023/05/31 09:19:53;;;;;;;3.20;2.03;;;15.70;99.90;;;;;;5054260;28;20936;-81
2023/05/31 09:22:23;;;;;;;2.35;1.98;;;15.80;99.90;;;;;;5044986;28;20079;-82
2023/05/31 09:24:59;;;;;;;3.05;2.40;;;15.80;99.90;;;;;;5058927;28;20052;-83
2023/05/31 09:27:33;;;;;;;3.13;2.83;;;15.70;99.90;;;;;;5068968;28;20050;-81
2023/05/31 09:29:59;;;;;;;3.00;2.40;;;15.70;99.90;;;;;;5075805;28;20041;-81
2023/05/31 09:32:26;;;;;;;3.05;2.15;;;15.60;99.90;;;;;;5064744;28;20117;-82
2023/05/31 09:34:55;;;;;;;2.70;2.30;;;15.70;99.90;;;;;;5078905;28;20065;-81
2023/05/31 09:37:23;;;;;;;2.92;2.30;;;15.80;99.90;;;;;;5046836;28;20124;-81
2023/05/31 09:39:56;;;;;;;3.03;2.60;;;16.00;99.90;;;;;;5066702;28;20507;-81
2023/05/31 09:42:26;;;;;;;2.83;2.40;;;16.10;99.90;;;;;;5059987;28;20059;-81
2023/05/31 09:44:54;;;;;;;3.63;2.67;;;16.00;99.90;;;;;;5057714;28;20056;-81
2023/05/31 09:47:25;;;;;;;3.88;3.00;;;16.20;99.90;;;;;;5030360;28;20114;-81
2023/05/31 09:49:55;;;;;;;3.40;3.10;;;16.20;99.90;;;;;;5055824;28;20560;-81
2023/05/31 09:52:26;;;;;;;4.22;2.50;;;16.30;99.90;;;;;;5079277;28;20118;-81
2023/05/31 09:54:53;;;;;;;3.67;3.08;;;16.30;99.90;;;;;;5057424;28;20048;-82
2023/05/31 09:57:40;;;;;;;3.55;2.90;;;16.40;99.90;;;;;;5065148;28;20055;-81
2023/05/31 10:00:20;;;;;;;3.08;2.67;;;16.40;99.90;;;;;;5076173;28;20059;-81
2023/05/31 10:02:48;;;;;;;3.80;2.67;;;16.40;99.90;;;;;;5053656;28;20665;-81
2023/05/31 10:05:19;;;;;;;4.47;2.97;;;16.30;99.90;;;;;;5062593;28;20067;-82
2023/05/31 10:07:50;;;;;;;4.57;2.90;;;16.30;99.90;;;;;;5045705;28;20052;-81
2023/05/31 10:10:20;;;;;;;3.13;2.70;;;16.10;99.90;;;;;;5037395;28;20384;-83
2023/05/31 10:12:51;;;;;;;4.38;2.70;;;16.10;99.90;;;;;;5042991;28;20537;-82
2023/05/31 10:15:22;;;;;;;2.60;2.38;;;16.20;99.90;;;;;;5067802;28;20058;-82
2023/05/31 10:18:07;;;;;;;3.78;3.00;;;16.40;99.90;;;;;;5083152;28;20494;-81
2023/05/31 10:20:39;;;;;;;4.55;3.63;;;16.40;99.90;;;;;;5063014;28;20071;-81
2023/05/31 10:23:08;;;;;;;3.55;2.78;;;16.40;99.90;;;;;;5071693;28;20064;-82
2023/05/31 10:25:38;;;;;;;3.50;2.67;;;16.50;99.90;;;;;;5064121;28;20062;-81
2023/05/31 10:28:10;;;;;;;2.97;2.60;;;16.70;99.90;;;;;;5062925;28;21026;-81
2023/05/31 10:30:39;;;;;;;4.22;3.45;;;16.90;99.90;;;;;;5067073;28;20168;-82
2023/05/31 10:33:11;;;;;;;3.25;2.53;;;17.00;99.90;;;;;;5064945;28;20141;-82
2023/05/31 10:35:41;;;;;;;4.80;2.33;;;17.40;99.90;;;;;;5083207;28;20062;-82
2023/05/31 10:38:08;;;;;;;3.85;2.42;;;17.60;99.90;;;;;;5058261;28;20044;-82
2023/05/31 10:40:53;;;;;;;3.97;2.70;;;17.70;99.90;;;;;;5063344;28;20276;-82
2023/05/31 10:43:35;;;;;;;4.90;3.10;;;17.70;99.90;;;;;;5074233;28;20301;-82
2023/05/31 10:46:10;;;;;;;3.97;2.72;;;17.30;99.90;;;;;;5079427;28;20053;-81
2023/05/31 10:48:54;;;;;;;3.72;2.78;;;17.20;99.90;;;;;;5045485;28;20052;-82
2023/05/31 10:51:42;;;;;;;4.07;2.80;;;17.10;99.90;;;;;;5049181;28;20226;-79
2023/05/31 10:54:11;;;;;;;4.82;3.30;;;17.30;99.90;;;;;;5075631;28;20109;-90
2023/05/31 10:56:38;;;;;;;4.90;3.45;;;17.30;99.90;;;;;;5064212;28;20052;-80
2023/05/31 10:59:08;;;;;;;3.78;3.05;;;17.20;99.90;;;;;;5062874;28;20139;-81
2023/05/31 11:01:35;;;;;;;5.07;4.03;;;17.10;99.90;;;;;;5085079;28;20128;-80
2023/05/31 11:04:02;;;;;;;4.90;3.45;;;16.90;99.90;;;;;;5074460;28;20143;-81
2023/05/31 11:06:31;;;;;;;6.28;3.00;;;17.00;99.90;;;;;;5065356;28;20473;-80
2023/05/31 11:09:15;;;;;;;3.85;3.45;;;17.00;99.90;;;;;;5065169;28;20047;-80
2023/05/31 11:11:49;;;;;;;4.15;3.25;;;17.10;99.90;;;;;;5097241;28;20047;-81
2023/05/31 11:14:16;;;;;;;5.00;3.10;;;17.10;99.90;;;;;;5045913;28;20518;-81
2023/05/31 11:17:03;;;;;;;4.40;3.05;;;17.20;99.90;;;;;;5081064;28;20078;-81
2023/05/31 11:19:31;;;;;;;4.22;2.83;;;17.30;99.90;;;;;;5067118;28;20048;-81
2023/05/31 11:22:05;;;;;;;3.80;3.22;;;17.40;99.90;;;;;;5062687;28;20462;-81
2023/05/31 11:24:50;;;;;;;5.22;3.10;;;17.50;99.90;;;;;;5076978;28;20399;-82
2023/05/31 11:27:18;;;;;;;4.10;3.20;;;17.60;99.90;;;;;;5068579;28;20043;-81
2023/05/31 11:29:51;;;;;;;4.25;3.53;;;17.60;99.90;;;;;;5087747;28;20503;-81
2023/05/31 11:32:18;;;;;;;;;;;17.60;99.90;;;;;;5081999;28;20383;-81
2023/05/31 11:34:54;;;;;;;5.00;2.67;;;17.70;99.90;;;;;;5077882;28;19927;-81
2023/05/31 11:37:21;;;;;;;3.30;2.55;;;17.80;99.90;;;;;;5079595;28;20059;-80
2023/05/31 11:39:50;;;;;;;4.15;2.65;;;18.00;99.90;;;;;;5049285;28;20052;-82
2023/05/31 11:42:18;;;;;;;3.20;2.15;;;18.10;99.90;;;;;;5064892;28;21114;-79
2023/05/31 11:44:45;;;;;;;2.83;2.30;;;18.50;99.90;;;;;;5063653;28;20067;-80
2023/05/31 11:47:28;;;;;;;2.72;2.22;;;18.80;99.90;;;;;;5066186;28;20434;-80
2023/05/31 11:49:58;;;;;;;3.47;2.25;;;18.90;99.90;;;;;;5080363;28;20052;-79
2023/05/31 11:52:25;;;;;;;2.55;2.05;;;19.10;99.90;;;;;;5065941;28;20077;-80
2023/05/31 11:54:54;;;;;;;2.22;2.00;;;19.30;99.90;;;;;;5060562;28;20040;-80
2023/05/31 11:57:22;;;;;;;5.65;3.08;;;19.30;99.90;;;;;;5040848;28;20048;-81
2023/05/31 11:59:49;;;;;;;4.00;2.22;;;19.20;99.90;;;;;;5081862;28;20135;-80
2023/05/31 12:02:17;;;;;;;2.55;2.33;;;19.00;99.90;;;;;;5082260;28;21403;-82
2023/05/31 12:04:44;;;;;;;2.92;2.33;;;19.20;99.90;;;;;;5038258;28;20140;-81
2023/05/31 12:07:16;;;;;;;3.13;2.17;;;19.70;99.90;;;;;;5061417;28;20040;-81
2023/05/31 12:09:43;;;;;;;2.70;2.22;;;20.90;99.90;;;;;;5078504;28;20105;-93
2023/05/31 12:12:11;;;;;;;3.63;2.50;;;21.50;99.90;;;;;;5045507;28;20056;-77
2023/05/31 12:14:37;;;;;;;3.90;2.88;;;21.70;99.90;;;;;;5080430;28;20047;-76
2023/05/31 12:17:05;;;;;;;3.40;2.50;;;21.60;99.90;;;;;;5079516;28;20533;-77
2023/05/31 12:19:32;;;;;;;2.88;2.05;;;21.30;99.90;;;;;;5064535;28;20060;-76
2023/05/31 12:21:59;;;;;;;3.88;2.78;;;21.20;99.90;;;;;;5058556;28;20559;-76
2023/05/31 12:24:25;;;;;;;3.05;2.35;;;20.70;99.90;;;;;;5074916;28;20095;-77
2023/05/31 12:26:55;;;;;;;2.55;2.25;;;20.50;99.90;;;;;;5076290;28;20056;-77
2023/05/31 12:29:29;;;;;;;3.58;2.20;;;20.60;99.90;;;;;;5075696;28;20200;-77
2023/05/31 12:32:06;;;;;;;4.55;2.60;;;20.60;99.90;;;;;;5081764;28;20072;-87
2023/05/31 12:34:37;;;;;;;3.45;1.95;;;20.70;99.90;;;;;;5057812;28;20071;-76
2023/05/31 12:37:07;;;;;;;4.18;2.20;;;21.00;99.90;;;;;;5059415;28;20048;-76
2023/05/31 12:39:34;;;;;;;3.70;2.45;;;21.10;99.90;;;;;;5059547;28;20052;-75
2023/05/31 12:42:02;;;;;;;3.38;2.38;;;21.00;99.90;;;;;;5076215;28;20048;-76
2023/05/31 12:44:29;;;;;;;3.35;2.30;;;21.00;99.90;;;;;;5074481;28;20511;-75
2023/05/31 12:47:04;;;;;;;2.63;1.92;;;21.30;99.90;;;;;;5055495;28;20052;-76
2023/05/31 12:49:32;;;;;;;2.55;2.17;;;21.60;99.90;;;;;;5061724;28;20080;-76
2023/05/31 12:52:00;;;;;;;3.30;2.20;;;21.60;99.90;;;;;;5078555;28;20083;-77
2023/05/31 12:54:27;;;;;;;2.40;1.90;;;21.70;99.90;;;;;;5078968;28;20108;-77
2023/05/31 12:56:54;;;;;;;4.03;1.98;;;22.10;99.90;;;;;;5079877;28;20109;-76